Time;durP1;ratioP1;P1;durP2;ratioP2;P2;SDS_P1;SDS_P2;PMS_P1;PMS_P2;Temp;Humidity;BMP_temperature;BMP_pressure;BME280_temperature;BME280_humidity;BME280_pressure;Samples;Min_cycle;Max_cycle;Signal;HPM_P1;HPM_P2
2023/06/18 00:02:00;;;;;;;8.05;6.95;;;;;;;;;;5106125;28;20051;-60
2023/06/18 00:04:27;;;;;;;8.32;7.15;;;;;;;;;;5100166;28;20051;-60
2023/06/18 00:06:54;;;;;;;7.45;6.75;;;;;;;;;;5112005;28;20389;-60
2023/06/18 00:09:21;;;;;;;7.80;6.82;;;;;;;;;;5110907;28;20059;-60
2023/06/18 00:11:47;;;;;;;9.10;8.20;;;;;;;;;;5112140;28;20052;-60
2023/06/18 00:14:16;;;;;;;8.70;6.80;;;;;;;;;;5110790;28;20052;-60
2023/06/18 00:16:46;;;;;;;8.50;7.70;;;;;;;;;;5111576;28;20051;-60
2023/06/18 00:19:13;;;;;;;8.23;6.68;;;;;;;;;;5108763;28;20048;-60
2023/06/18 00:21:40;;;;;;;8.82;6.95;;;;;;;;;;5111171;28;20059;-60
2023/06/18 00:24:06;;;;;;;8.38;6.43;;;;;;;;;;5113697;28;20054;-60
2023/06/18 00:26:33;;;;;;;8.13;7.32;;;;;;;;;;5112054;28;20503;-60
2023/06/18 00:29:01;;;;;;;7.40;6.20;;;;;;;;;;5115564;28;20044;-60
2023/06/18 00:31:32;;;;;;;7.32;6.63;;;;;;;;;;5115187;28;20066;-61
2023/06/18 00:34:04;;;;;;;8.85;6.95;;;;;;;;;;5113781;28;20050;-61
2023/06/18 00:36:31;;;;;;;10.43;7.25;;;;;;;;;;5100951;28;20055;-61
2023/06/18 00:38:58;;;;;;;7.70;7.00;;;;;;;;;;5114917;28;20055;-61
2023/06/18 00:41:27;;;;;;;8.90;7.13;;;;;;;;;;5115549;28;20059;-61
2023/06/18 00:43:57;;;;;;;7.97;7.18;;;;;;;;;;5115124;28;20052;-60
2023/06/18 00:46:25;;;;;;;7.07;6.40;;;;;;;;;;5113574;28;20054;-61
2023/06/18 00:48:54;;;;;;;8.00;7.03;;;;;;;;;;5114299;28;20050;-61
2023/06/18 00:51:22;;;;;;;7.57;6.88;;;;;;;;;;5113261;28;20055;-61
2023/06/18 00:53:49;;;;;;;8.60;7.22;;;;;;;;;;5115557;28;20056;-61
2023/06/18 00:56:17;;;;;;;8.07;7.28;;;;;;;;;;5114630;28;20047;-61
2023/06/18 00:58:47;;;;;;;8.82;7.70;;;;;;;;;;5115548;28;20054;-61
2023/06/18 01:01:14;;;;;;;8.27;7.47;;;;;;;;;;5114455;28;20059;-61
2023/06/18 01:03:41;;;;;;;7.55;6.45;;;;;;;;;;5112653;28;20056;-60
2023/06/18 01:06:12;;;;;;;8.02;7.22;;;;;;;;;;5113897;28;20488;-62
2023/06/18 01:08:40;;;;;;;9.88;6.60;;;;;;;;;;5114689;28;20051;-61
2023/06/18 01:11:07;;;;;;;8.02;7.22;;;;;;;;;;5115094;28;20052;-61
2023/06/18 01:13:36;;;;;;;8.25;7.32;;;;;;;;;;5113531;28;20054;-61
2023/06/18 01:16:05;;;;;;;8.05;7.18;;;;;;;;;;5113318;28;20070;-61
2023/06/18 01:18:34;;;;;;;8.20;7.40;;;;;;;;;;5113638;28;20060;-61
2023/06/18 01:21:05;;;;;;;8.20;7.40;;;;;;;;;;5114007;28;20489;-61
2023/06/18 01:23:45;;;;;;;7.90;7.10;;;;;;;;;;5115091;28;20059;-59
2023/06/18 01:26:12;;;;;;;8.18;7.22;;;;;;;;;;5112496;28;20051;-61
2023/06/18 01:28:40;;;;;;;9.07;6.80;;;;;;;;;;5114127;28;20071;-61
2023/06/18 01:31:07;;;;;;;8.32;7.53;;;;;;;;;;5113926;28;20079;-61
2023/06/18 01:33:34;;;;;;;8.00;7.18;;;;;;;;;;5112955;28;20058;-60
2023/06/18 01:36:01;;;;;;;8.27;7.47;;;;;;;;;;5114197;28;20249;-62
2023/06/18 01:38:33;;;;;;;7.97;7.18;;;;;;;;;;5114281;28;20051;-61
2023/06/18 01:41:06;;;;;;;9.57;7.45;;;;;;;;;;5115004;28;20063;-61
2023/06/18 01:43:35;;;;;;;10.65;8.57;;;;;;;;;;5112911;28;20047;-61
2023/06/18 01:46:04;;;;;;;10.00;8.05;;;;;;;;;;5112472;28;20048;-61
2023/06/18 01:48:35;;;;;;;8.65;7.57;;;;;;;;;;5113906;28;20048;-61
2023/06/18 01:51:03;;;;;;;9.25;7.57;;;;;;;;;;5114295;28;20059;-60
2023/06/18 01:53:30;;;;;;;9.18;7.32;;;;;;;;;;5112602;28;20054;-60
2023/06/18 01:55:59;;;;;;;8.65;7.75;;;;;;;;;;5102401;28;20044;-59
2023/06/18 01:58:27;;;;;;;8.95;7.47;;;;;;;;;;5109898;28;20118;-60
2023/06/18 02:00:54;;;;;;;7.95;7.15;;;;;;;;;;5111429;28;20488;-59
2023/06/18 02:03:21;;;;;;;8.57;7.63;;;;;;;;;;5114491;28;20047;-60
2023/06/18 02:05:48;;;;;;;10.00;7.85;;;;;;;;;;5112046;28;20063;-60
2023/06/18 02:08:15;;;;;;;8.65;7.45;;;;;;;;;;5112915;28;20051;-60
2023/06/18 02:10:41;;;;;;;8.80;7.32;;;;;;;;;;5112868;28;20062;-60
2023/06/18 02:13:09;;;;;;;8.75;7.10;;;;;;;;;;5113572;27;20051;-60
2023/06/18 02:15:37;;;;;;;8.93;7.55;;;;;;;;;;5115508;27;20055;-61
2023/06/18 02:18:04;;;;;;;8.95;7.60;;;;;;;;;;5095362;28;20393;-60
2023/06/18 02:20:31;;;;;;;8.38;7.57;;;;;;;;;;5107990;28;20047;-59
2023/06/18 02:22:58;;;;;;;10.23;7.97;;;;;;;;;;5111939;28;20131;-60
2023/06/18 02:25:29;;;;;;;9.00;8.10;;;;;;;;;;5112484;28;20784;-60
2023/06/18 02:27:57;;;;;;;8.40;7.45;;;;;;;;;;5113559;28;20047;-60
2023/06/18 02:30:24;;;;;;;8.40;7.50;;;;;;;;;;5110011;28;20052;-60
2023/06/18 02:32:52;;;;;;;9.93;8.07;;;;;;;;;;5112948;28;20047;-61
2023/06/18 02:35:19;;;;;;;9.23;7.72;;;;;;;;;;5112206;28;20429;-64
2023/06/18 02:37:46;;;;;;;9.63;7.32;;;;;;;;;;5103642;28;20063;-61
2023/06/18 02:40:17;;;;;;;8.75;7.88;;;;;;;;;;5111054;28;20044;-61
2023/06/18 02:42:48;;;;;;;10.93;8.30;;;;;;;;;;5113893;27;20043;-61
2023/06/18 02:45:16;;;;;;;9.20;7.88;;;;;;;;;;5116483;27;20044;-61
2023/06/18 02:47:43;;;;;;;10.00;7.30;;;;;;;;;;5110100;28;20059;-61
2023/06/18 02:50:11;;;;;;;9.88;8.00;;;;;;;;;;5109863;28;20059;-61
2023/06/18 02:52:38;;;;;;;9.57;8.45;;;;;;;;;;5104557;28;20052;-61
2023/06/18 02:55:06;;;;;;;10.35;8.10;;;;;;;;;;5111546;28;20052;-61
2023/06/18 02:57:36;;;;;;;8.63;7.72;;;;;;;;;;5111755;28;20054;-61
2023/06/18 03:00:05;;;;;;;8.77;7.88;;;;;;;;;;5110047;28;20055;-61
2023/06/18 03:02:32;;;;;;;8.60;7.50;;;;;;;;;;5110992;28;20047;-61
2023/06/18 03:04:59;;;;;;;8.68;7.75;;;;;;;;;;5116397;27;20050;-61
2023/06/18 03:07:27;;;;;;;8.77;7.60;;;;;;;;;;5107313;28;20048;-60
2023/06/18 03:09:54;;;;;;;11.30;7.82;;;;;;;;;;5107351;28;20485;-60
2023/06/18 03:12:21;;;;;;;13.48;8.63;;;;;;;;;;5111275;28;20043;-60
2023/06/18 03:14:48;;;;;;;9.25;8.25;;;;;;;;;;5110943;28;20054;-61
2023/06/18 03:17:15;;;;;;;8.82;7.35;;;;;;;;;;5111977;28;20059;-59
2023/06/18 03:19:44;;;;;;;8.30;7.50;;;;;;;;;;5109797;28;20483;-61
2023/06/18 03:22:11;;;;;;;10.27;8.27;;;;;;;;;;5111662;28;20058;-61
2023/06/18 03:24:40;;;;;;;9.88;8.15;;;;;;;;;;5110522;28;20051;-60
2023/06/18 03:27:07;;;;;;;;;;;;;;;;;;5110808;28;20047;-61
2023/06/18 03:29:35;;;;;;;8.55;7.60;;;;;;;;;;5102286;28;19938;-61
2023/06/18 03:32:02;;;;;;;9.63;8.15;;;;;;;;;;5107303;28;20496;-61
2023/06/18 03:34:31;;;;;;;9.05;8.15;;;;;;;;;;5111068;28;20051;-61
2023/06/18 03:37:00;;;;;;;11.70;8.97;;;;;;;;;;5110929;28;20050;-61
2023/06/18 03:39:27;;;;;;;9.98;8.75;;;;;;;;;;5118477;27;20416;-61
2023/06/18 03:41:55;;;;;;;11.75;9.38;;;;;;;;;;5109543;28;20047;-62
2023/06/18 03:44:22;;;;;;;8.50;7.60;;;;;;;;;;5111887;28;20067;-61
2023/06/18 03:46:49;;;;;;;10.50;8.55;;;;;;;;;;5108776;28;20055;-61
2023/06/18 03:49:17;;;;;;;12.48;9.60;;;;;;;;;;5111668;28;20047;-61
2023/06/18 03:51:44;;;;;;;9.40;8.18;;;;;;;;;;5109890;28;20052;-61
2023/06/18 03:54:11;;;;;;;9.77;8.77;;;;;;;;;;5109879;28;20047;-61
2023/06/18 03:56:38;;;;;;;10.20;7.90;;;;;;;;;;5105411;28;20052;-61
2023/06/18 03:59:07;;;;;;;11.02;7.68;;;;;;;;;;5105447;28;20048;-62
2023/06/18 04:01:33;;;;;;;9.75;7.78;;;;;;;;;;5110301;28;20044;-61
2023/06/18 04:04:01;;;;;;;12.60;7.70;;;;;;;;;;5123141;27;20412;-61
2023/06/18 04:06:28;;;;;;;10.65;8.15;;;;;;;;;;5115062;28;20055;-61
2023/06/18 04:08:55;;;;;;;10.38;8.38;;;;;;;;;;5114105;28;20052;-61
2023/06/18 04:11:24;;;;;;;8.90;8.02;;;;;;;;;;5115543;28;20036;-62
2023/06/18 04:13:51;;;;;;;9.73;8.73;;;;;;;;;;5115337;28;20396;-62
2023/06/18 04:16:21;;;;;;;9.05;8.15;;;;;;;;;;5111984;28;20054;-61
2023/06/18 04:18:48;;;;;;;10.68;9.57;;;;;;;;;;5123946;27;20051;-62
2023/06/18 04:21:14;;;;;;;8.63;7.80;;;;;;;;;;5115195;28;20047;-61
2023/06/18 04:23:42;;;;;;;9.30;8.20;;;;;;;;;;5114867;28;20456;-61
2023/06/18 04:26:09;;;;;;;9.88;8.85;;;;;;;;;;5113557;28;20051;-61
2023/06/18 04:28:35;;;;;;;8.98;7.53;;;;;;;;;;5114316;28;20061;-61
2023/06/18 04:31:02;;;;;;;10.52;9.00;;;;;;;;;;5113286;28;20377;-62
2023/06/18 04:33:30;;;;;;;11.88;8.15;;;;;;;;;;5115103;28;20051;-61
2023/06/18 04:35:57;;;;;;;8.85;7.93;;;;;;;;;;5115127;28;20051;-61
2023/06/18 04:38:24;;;;;;;9.63;8.73;;;;;;;;;;5112855;28;20488;-61
2023/06/18 04:40:51;;;;;;;11.05;8.77;;;;;;;;;;5113952;28;20052;-61
2023/06/18 04:43:18;;;;;;;9.57;7.32;;;;;;;;;;5112656;28;20077;-62
2023/06/18 04:45:46;;;;;;;8.95;8.05;;;;;;;;;;5113637;28;20052;-61
2023/06/18 04:48:14;;;;;;;10.90;8.57;;;;;;;;;;5113780;28;20044;-62
2023/06/18 04:50:42;;;;;;;8.93;7.82;;;;;;;;;;5113441;28;20039;-61
2023/06/18 04:53:09;;;;;;;11.05;8.57;;;;;;;;;;5113985;28;20511;-61
2023/06/18 04:55:36;;;;;;;10.73;8.77;;;;;;;;;;5115358;28;20051;-61
2023/06/18 04:58:04;;;;;;;8.40;7.55;;;;;;;;;;5114171;28;20416;-61
2023/06/18 05:00:31;;;;;;;10.40;8.90;;;;;;;;;;5111021;28;20039;-61
2023/06/18 05:02:58;;;;;;;11.68;9.25;;;;;;;;;;5110189;28;20047;-61
2023/06/18 05:05:24;;;;;;;9.52;7.60;;;;;;;;;;5110108;28;20054;-61
2023/06/18 05:07:53;;;;;;;9.60;8.40;;;;;;;;;;5107599;28;20058;-61
2023/06/18 05:10:20;;;;;;;9.20;8.30;;;;;;;;;;5112723;28;20052;-60
2023/06/18 05:12:46;;;;;;;11.23;9.35;;;;;;;;;;5109918;28;20051;-61
2023/06/18 05:15:13;;;;;;;10.27;9.23;;;;;;;;;;5112601;28;20043;-61
2023/06/18 05:17:40;;;;;;;9.63;8.30;;;;;;;;;;5113775;28;20051;-61
2023/06/18 05:20:08;;;;;;;10.05;7.97;;;;;;;;;;5113184;28;20047;-60
2023/06/18 05:22:35;;;;;;;10.43;9.20;;;;;;;;;;5113248;28;20055;-60
2023/06/18 05:25:04;;;;;;;9.52;8.30;;;;;;;;;;5112510;28;20070;-60
2023/06/18 05:27:31;;;;;;;12.43;9.07;;;;;;;;;;5113682;28;20043;-60
2023/06/18 05:29:59;;;;;;;10.77;9.55;;;;;;;;;;5113401;28;20052;-61
2023/06/18 05:32:26;;;;;;;11.65;8.35;;;;;;;;;;5109660;28;20044;-61
2023/06/18 05:34:55;;;;;;;10.75;9.27;;;;;;;;;;5112009;28;20412;-62
2023/06/18 05:37:22;;;;;;;10.95;9.85;;;;;;;;;;5112584;28;20051;-61
2023/06/18 05:39:50;;;;;;;9.60;8.38;;;;;;;;;;5109823;28;20504;-60
2023/06/18 05:42:18;;;;;;;9.57;8.57;;;;;;;;;;5111788;28;20105;-61
2023/06/18 05:44:45;;;;;;;9.73;8.68;;;;;;;;;;5113712;28;20051;-60
2023/06/18 05:47:12;;;;;;;9.18;8.25;;;;;;;;;;5111625;28;20534;-60
2023/06/18 05:49:39;;;;;;;10.45;9.23;;;;;;;;;;5111419;28;20051;-61
2023/06/18 05:52:06;;;;;;;9.88;8.98;;;;;;;;;;5111731;28;20476;-60
2023/06/18 05:54:33;;;;;;;10.13;8.85;;;;;;;;;;5113434;28;20404;-60
2023/06/18 05:57:00;;;;;;;9.98;8.85;;;;;;;;;;5108219;28;20048;-60
2023/06/18 05:59:28;;;;;;;10.20;9.13;;;;;;;;;;5112654;28;20055;-61
2023/06/18 06:01:55;;;;;;;9.20;8.30;;;;;;;;;;5113158;28;20059;-61
2023/06/18 06:04:22;;;;;;;9.80;8.80;;;;;;;;;;5111594;28;20050;-60
2023/06/18 06:06:49;;;;;;;9.23;8.30;;;;;;;;;;5112290;28;20066;-61
2023/06/18 06:09:16;;;;;;;10.15;9.18;;;;;;;;;;5110666;28;20066;-60
2023/06/18 06:11:42;;;;;;;9.75;8.75;;;;;;;;;;5111814;27;20050;-60
2023/06/18 06:14:09;;;;;;;10.98;9.48;;;;;;;;;;5111501;28;20474;-61
2023/06/18 06:16:37;;;;;;;9.68;8.18;;;;;;;;;;5110874;28;20054;-61
2023/06/18 06:19:04;;;;;;;9.48;7.95;;;;;;;;;;5107435;28;20256;-60
2023/06/18 06:21:33;;;;;;;9.90;8.85;;;;;;;;;;5108692;28;20063;-59
2023/06/18 06:24:00;;;;;;;10.85;8.43;;;;;;;;;;5110897;28;20043;-60
2023/06/18 06:26:26;;;;;;;9.63;8.63;;;;;;;;;;5111143;28;20054;-60
2023/06/18 06:28:53;;;;;;;10.20;9.18;;;;;;;;;;5108786;28;20382;-60
2023/06/18 06:31:20;;;;;;;9.15;8.10;;;;;;;;;;5107294;28;20051;-60
2023/06/18 06:33:50;;;;;;;11.07;7.80;;;;;;;;;;5110862;28;20421;-59
2023/06/18 06:36:17;;;;;;;9.23;8.13;;;;;;;;;;5107779;28;20058;-60
2023/06/18 06:38:44;;;;;;;9.85;8.85;;;;;;;;;;5107797;28;20253;-62
2023/06/18 06:41:10;;;;;;;9.88;8.38;;;;;;;;;;5085409;28;20062;-59
2023/06/18 06:43:37;;;;;;;11.20;8.07;;;;;;;;;;5088698;28;20056;-61
2023/06/18 06:46:04;;;;;;;10.52;8.50;;;;;;;;;;5087194;28;20044;-61
2023/06/18 06:48:31;;;;;;;9.32;8.43;;;;;;;;;;5078319;28;20053;-61
2023/06/18 06:54:31;;;;;;;9.05;8.15;;;;;;;;;;5089872;28;20020;-61
2023/06/18 06:57:00;;;;;;;8.02;7.22;;;;;;;;;;5089863;28;20055;-61
2023/06/18 06:59:26;;;;;;;8.27;7.47;;;;;;;;;;5091325;28;20511;-61
2023/06/18 07:01:53;;;;;;;10.05;7.85;;;;;;;;;;5087517;28;20115;-61
2023/06/18 07:04:20;;;;;;;10.38;8.77;;;;;;;;;;5089067;28;20078;-61
2023/06/18 07:06:47;;;;;;;8.68;7.80;;;;;;;;;;5090468;28;20059;-61
2023/06/18 07:09:14;;;;;;;9.65;8.20;;;;;;;;;;5091015;28;20161;-61
2023/06/18 07:11:41;;;;;;;7.88;6.90;;;;;;;;;;5092254;28;20447;-61
2023/06/18 07:14:09;;;;;;;9.48;8.52;;;;;;;;;;5093225;28;20048;-61
2023/06/18 07:16:36;;;;;;;8.37;7.40;;;;;;;;;;5090730;28;20485;-61
2023/06/18 07:19:03;;;;;;;9.30;8.35;;;;;;;;;;5089642;28;20055;-61
2023/06/18 07:21:30;;;;;;;7.93;6.85;;;;;;;;;;5089660;28;20048;-61
2023/06/18 07:23:57;;;;;;;8.60;7.32;;;;;;;;;;5089152;28;20048;-61
2023/06/18 07:26:24;;;;;;;8.40;7.60;;;;;;;;;;5089190;28;20054;-60
2023/06/18 07:28:51;;;;;;;8.25;7.40;;;;;;;;;;5092306;28;20118;-60
2023/06/18 07:31:19;;;;;;;9.68;6.90;;;;;;;;;;5090913;28;20511;-61
2023/06/18 07:33:46;;;;;;;7.43;6.73;;;;;;;;;;5091916;28;20060;-60
2023/06/18 07:36:12;;;;;;;7.97;7.20;;;;;;;;;;5089529;28;20482;-60
2023/06/18 07:38:39;;;;;;;8.73;7.30;;;;;;;;;;5085674;28;20060;-61
2023/06/18 07:41:06;;;;;;;8.23;6.78;;;;;;;;;;5091417;28;20060;-60
2023/06/18 07:43:33;;;;;;;8.00;6.60;;;;;;;;;;5089537;28;20052;-60
2023/06/18 07:46:00;;;;;;;8.43;7.43;;;;;;;;;;5080335;28;20053;-60
2023/06/18 07:48:28;;;;;;;8.80;7.90;;;;;;;;;;5087894;28;20059;-60
2023/06/18 07:50:54;;;;;;;9.07;6.73;;;;;;;;;;5091537;28;20416;-61
2023/06/18 07:53:22;;;;;;;8.38;7.10;;;;;;;;;;5092069;28;20059;-60
2023/06/18 07:55:48;;;;;;;7.45;6.65;;;;;;;;;;5089917;28;20048;-60
2023/06/18 07:58:15;;;;;;;6.85;6.15;;;;;;;;;;5087499;28;20052;-60
2023/06/18 08:00:42;;;;;;;8.15;7.05;;;;;;;;;;5077379;28;20056;-60
2023/06/18 08:03:09;;;;;;;7.97;7.18;;;;;;;;;;5084466;28;20484;-60
2023/06/18 08:05:37;;;;;;;7.55;6.80;;;;;;;;;;5090830;28;20051;-60
2023/06/18 08:08:04;;;;;;;8.27;6.55;;;;;;;;;;5086590;28;20056;-60
2023/06/18 08:10:31;;;;;;;8.20;6.75;;;;;;;;;;5091744;28;20048;-61
2023/06/18 08:12:58;;;;;;;10.88;6.85;;;;;;;;;;5090732;28;20059;-60
2023/06/18 08:15:24;;;;;;;6.55;5.95;;;;;;;;;;5086501;28;20425;-61
2023/06/18 08:17:55;;;;;;;6.22;5.45;;;;;;;;;;5089189;28;20060;-61
2023/06/18 08:20:22;;;;;;;6.50;5.93;;;;;;;;;;5078867;28;20495;-61
2023/06/18 08:22:50;;;;;;;6.18;5.60;;;;;;;;;;5090921;28;20052;-60
2023/06/18 08:25:17;;;;;;;6.13;4.90;;;;;;;;;;5089223;28;20054;-61
2023/06/18 08:27:44;;;;;;;5.85;4.63;;;;;;;;;;5088420;28;20382;-61
2023/06/18 08:30:10;;;;;;;7.43;4.90;;;;;;;;;;5084853;28;20048;-61
2023/06/18 08:32:38;;;;;;;5.65;4.65;;;;;;;;;;5088029;28;20060;-61
2023/06/18 08:35:05;;;;;;;5.82;4.75;;;;;;;;;;5089522;28;20055;-62
2023/06/18 08:37:32;;;;;;;5.15;4.65;;;;;;;;;;5090711;28;20059;-62
2023/06/18 08:40:00;;;;;;;5.07;4.57;;;;;;;;;;5099426;28;20055;-62
2023/06/18 08:42:27;;;;;;;5.97;5.03;;;;;;;;;;5109734;28;20051;-61
2023/06/18 08:44:54;;;;;;;7.25;4.88;;;;;;;;;;5110281;28;20063;-62
2023/06/18 08:47:22;;;;;;;5.47;4.90;;;;;;;;;;5109640;28;20047;-62
2023/06/18 08:49:50;;;;;;;4.70;4.30;;;;;;;;;;5114348;28;20055;-62
2023/06/18 08:52:19;;;;;;;5.57;4.80;;;;;;;;;;5114738;28;20051;-62
2023/06/18 08:54:47;;;;;;;5.15;4.65;;;;;;;;;;5113287;28;20084;-62
2023/06/18 08:57:17;;;;;;;5.13;4.63;;;;;;;;;;5115968;28;20055;-61
2023/06/18 08:59:45;;;;;;;5.43;4.93;;;;;;;;;;5115074;28;20062;-62
2023/06/18 09:02:12;;;;;;;4.97;4.38;;;;;;;;;;5107764;28;20052;-62
2023/06/18 09:04:40;;;;;;;5.27;4.40;;;;;;;;;;5103327;28;20059;-61
2023/06/18 09:07:07;;;;;;;5.03;4.25;;;;;;;;;;5107752;27;20495;-61
2023/06/18 09:09:33;;;;;;;5.40;4.90;;;;;;;;;;5122995;27;20062;-62
2023/06/18 09:12:00;;;;;;;5.53;4.57;;;;;;;;;;5112014;27;20503;-62
2023/06/18 09:14:28;;;;;;;5.13;4.30;;;;;;;;;;5123052;27;20043;-62
2023/06/18 09:16:57;;;;;;;4.40;4.00;;;;;;;;;;5123293;27;20051;-62
2023/06/18 09:19:24;;;;;;;4.80;4.32;;;;;;;;;;5119227;27;20052;-62
2023/06/18 09:21:51;;;;;;;5.50;4.43;;;;;;;;;;5117031;27;20052;-62
2023/06/18 09:24:19;;;;;;;4.35;3.92;;;;;;;;;;5114471;28;20054;-62
2023/06/18 09:26:46;;;;;;;5.03;4.20;;;;;;;;;;5113246;28;20055;-62
2023/06/18 09:29:13;;;;;;;4.55;4.15;;;;;;;;;;5112839;28;20050;-61
2023/06/18 09:31:44;;;;;;;4.47;4.07;;;;;;;;;;5114804;28;20051;-60
2023/06/18 09:34:12;;;;;;;5.10;4.57;;;;;;;;;;5113275;28;20043;-61
2023/06/18 09:36:39;;;;;;;5.57;4.10;;;;;;;;;;5114028;28;20070;-61
2023/06/18 09:39:14;;;;;;;4.45;4.05;;;;;;;;;;5103671;28;20062;-60
2023/06/18 09:41:41;;;;;;;4.43;4.03;;;;;;;;;;5114139;28;20074;-61
2023/06/18 09:44:08;;;;;;;3.97;3.67;;;;;;;;;;5114440;28;20055;-62
2023/06/18 09:46:35;;;;;;;4.53;4.10;;;;;;;;;;5112817;28;20059;-63
2023/06/18 09:49:03;;;;;;;4.00;3.70;;;;;;;;;;5114142;28;20051;-63
2023/06/18 09:51:30;;;;;;;4.38;3.97;;;;;;;;;;5112128;28;20511;-63
2023/06/18 09:53:59;;;;;;;4.75;4.25;;;;;;;;;;5112237;28;20070;-63
2023/06/18 09:56:26;;;;;;;4.75;4.35;;;;;;;;;;5111989;28;20059;-62
2023/06/18 09:58:53;;;;;;;6.47;4.13;;;;;;;;;;5113872;28;20478;-63
2023/06/18 10:01:20;;;;;;;4.88;4.15;;;;;;;;;;5109437;28;20047;-61
2023/06/18 10:03:47;;;;;;;4.82;3.67;;;;;;;;;;5107624;28;20158;-62
2023/06/18 10:06:17;;;;;;;4.20;3.90;;;;;;;;;;5110439;28;20044;-63
2023/06/18 10:08:45;;;;;;;4.65;4.25;;;;;;;;;;5107248;28;20051;-62
2023/06/18 10:11:12;;;;;;;5.30;4.13;;;;;;;;;;5112325;27;20059;-62
2023/06/18 10:13:42;;;;;;;4.40;4.07;;;;;;;;;;5112739;27;20378;-62
2023/06/18 10:16:10;;;;;;;4.20;3.85;;;;;;;;;;5109436;27;20055;-62
2023/06/18 10:18:36;;;;;;;4.75;4.00;;;;;;;;;;5108641;27;20044;-63
2023/06/18 10:21:04;;;;;;;4.22;3.78;;;;;;;;;;5108926;28;20058;-61
2023/06/18 10:23:33;;;;;;;5.05;3.92;;;;;;;;;;5113055;28;20058;-63
2023/06/18 10:26:01;;;;;;;4.35;3.95;;;;;;;;;;5109739;28;20500;-63
2023/06/18 10:28:28;;;;;;;4.35;4.00;;;;;;;;;;5112305;28;20056;-63
2023/06/18 10:30:55;;;;;;;4.10;3.70;;;;;;;;;;5112775;27;20051;-63
2023/06/18 10:33:21;;;;;;;;;;;;;;;;;;5111746;28;20048;-63
2023/06/18 10:35:48;;;;;;;4.57;4.15;;;;;;;;;;5110678;28;19927;-63
2023/06/18 10:38:15;;;;;;;;;;;;;;;;;;5114043;28;20469;-63
2023/06/18 10:40:43;;;;;;;6.60;4.35;;;;;;;;;;5096405;28;19920;-63
2023/06/18 10:43:10;;;;;;;4.68;4.28;;;;;;;;;;5101082;28;20058;-63
2023/06/18 10:45:37;;;;;;;4.68;4.28;;;;;;;;;;5110325;28;20070;-63
2023/06/18 10:48:15;;;;;;;4.38;3.97;;;;;;;;;;5092686;28;20048;-63
2023/06/18 10:50:42;;;;;;;4.03;3.63;;;;;;;;;;5101107;28;20496;-63
2023/06/18 10:53:08;;;;;;;;;;;;;;;;;;5102820;28;20048;-63
2023/06/18 10:55:35;;;;;;;4.18;3.88;;;;;;;;;;5100585;28;19920;-63
2023/06/18 10:58:05;;;;;;;4.00;3.70;;;;;;;;;;5084022;28;20048;-63
2023/06/18 11:00:33;;;;;;;4.80;4.20;;;;;;;;;;5099225;28;20059;-63
2023/06/18 11:03:01;;;;;;;5.55;4.57;;;;;;;;;;5092424;28;20048;-64
2023/06/18 11:05:44;;;;;;;4.53;4.13;;;;;;;;;;5096000;28;20052;-64
2023/06/18 11:08:11;;;;;;;4.40;4.00;;;;;;;;;;5100926;28;20048;-63
2023/06/18 11:10:39;;;;;;;5.00;3.78;;;;;;;;;;5091681;28;20167;-64
2023/06/18 11:13:08;;;;;;;4.53;4.13;;;;;;;;;;5107239;28;20056;-64
2023/06/18 11:15:35;;;;;;;5.57;4.55;;;;;;;;;;5105958;28;20059;-64
2023/06/18 11:18:02;;;;;;;4.75;4.35;;;;;;;;;;5111991;28;20051;-63
2023/06/18 11:20:31;;;;;;;4.40;4.00;;;;;;;;;;5085348;28;20507;-62
2023/06/18 11:22:58;;;;;;;5.00;4.50;;;;;;;;;;5094398;28;20444;-63
2023/06/18 11:25:26;;;;;;;4.60;4.20;;;;;;;;;;5083651;28;20484;-63
2023/06/18 11:27:54;;;;;;;4.47;4.07;;;;;;;;;;5102743;28;20052;-63
2023/06/18 11:30:22;;;;;;;4.45;4.05;;;;;;;;;;5098933;28;20052;-63
2023/06/18 11:32:49;;;;;;;4.78;4.07;;;;;;;;;;5099273;28;20491;-63
2023/06/18 11:35:16;;;;;;;4.90;4.50;;;;;;;;;;5093653;28;20055;-63
2023/06/18 11:37:45;;;;;;;4.50;4.10;;;;;;;;;;5082026;28;20049;-63
2023/06/18 11:40:12;;;;;;;5.18;4.35;;;;;;;;;;5106036;28;20047;-63
2023/06/18 11:42:39;;;;;;;;;;;;;;;;;;5112467;28;20052;-63
2023/06/18 11:45:07;;;;;;;4.82;3.92;;;;;;;;;;5111240;28;19927;-63
2023/06/18 11:47:35;;;;;;;4.43;3.80;;;;;;;;;;5110051;28;20052;-63
2023/06/18 11:50:02;;;;;;;4.13;3.67;;;;;;;;;;5109272;28;20496;-63
2023/06/18 11:52:30;;;;;;;4.88;4.47;;;;;;;;;;5110587;28;20066;-64
2023/06/18 11:55:02;;;;;;;4.30;3.95;;;;;;;;;;5109115;28;20058;-64
2023/06/18 11:57:29;;;;;;;4.97;4.57;;;;;;;;;;5110574;28;20051;-64
2023/06/18 11:59:56;;;;;;;4.53;4.13;;;;;;;;;;5110321;28;20058;-65
2023/06/18 12:02:23;;;;;;;4.63;4.22;;;;;;;;;;5109830;28;20052;-64
2023/06/18 12:04:52;;;;;;;4.40;4.00;;;;;;;;;;5107266;28;20047;-65
2023/06/18 12:07:19;;;;;;;4.78;4.38;;;;;;;;;;5109371;28;20063;-64
2023/06/18 12:09:46;;;;;;;4.47;4.07;;;;;;;;;;5110196;28;20122;-64
2023/06/18 12:12:19;;;;;;;4.55;4.20;;;;;;;;;;5104891;28;20051;-64
2023/06/18 12:14:50;;;;;;;4.50;3.95;;;;;;;;;;5105479;28;20071;-64
2023/06/18 12:17:19;;;;;;;4.70;4.30;;;;;;;;;;5110581;28;20072;-64
2023/06/18 12:19:49;;;;;;;4.35;3.95;;;;;;;;;;5111159;28;20056;-64
2023/06/18 12:22:17;;;;;;;4.57;4.18;;;;;;;;;;5110552;28;20059;-64
2023/06/18 12:24:44;;;;;;;4.53;4.10;;;;;;;;;;5114273;28;20043;-64
2023/06/18 12:27:12;;;;;;;4.22;3.83;;;;;;;;;;5111382;27;20063;-64
2023/06/18 12:29:40;;;;;;;4.60;4.20;;;;;;;;;;5126256;27;20074;-64
2023/06/18 12:32:08;;;;;;;4.40;4.03;;;;;;;;;;5116359;27;20048;-64
2023/06/18 12:34:35;;;;;;;4.55;4.15;;;;;;;;;;5108692;28;20059;-63
2023/06/18 12:37:02;;;;;;;;;;;;;;;;;;5125679;27;20050;-64
2023/06/18 12:39:30;;;;;;;4.18;3.78;;;;;;;;;;5119224;27;19920;-63
2023/06/18 12:41:57;;;;;;;4.60;4.20;;;;;;;;;;5115953;27;20051;-63
2023/06/18 12:44:24;;;;;;;4.25;3.85;;;;;;;;;;5108615;27;20044;-63
2023/06/18 12:46:52;;;;;;;4.57;4.18;;;;;;;;;;5112535;27;20058;-63
2023/06/18 12:49:19;;;;;;;4.85;4.32;;;;;;;;;;5113647;27;20066;-63
2023/06/18 12:51:48;;;;;;;4.13;3.83;;;;;;;;;;5114617;28;20385;-62
2023/06/18 12:54:15;;;;;;;6.20;3.92;;;;;;;;;;5113399;28;20047;-62
2023/06/18 12:56:53;;;;;;;5.20;4.15;;;;;;;;;;5114494;28;20055;-62
2023/06/18 12:59:21;;;;;;;5.57;3.90;;;;;;;;;;5113099;28;20051;-61
2023/06/18 13:01:48;;;;;;;4.20;3.90;;;;;;;;;;5112098;28;20070;-62
2023/06/18 13:04:16;;;;;;;5.72;4.40;;;;;;;;;;5113473;27;20507;-62
2023/06/18 13:06:42;;;;;;;;;;;;;;;;;;5113801;28;20419;-62
2023/06/18 13:09:09;;;;;;;4.75;4.28;;;;;;;;;;5114736;28;19921;-62
2023/06/18 13:11:38;;;;;;;4.63;4.22;;;;;;;;;;5111725;28;20059;-61
2023/06/18 13:14:06;;;;;;;4.72;4.35;;;;;;;;;;5108639;28;20048;-61
2023/06/18 13:16:33;;;;;;;4.57;4.13;;;;;;;;;;5113846;28;20050;-60
2023/06/18 13:19:00;;;;;;;4.55;3.88;;;;;;;;;;5113491;28;20062;-61
2023/06/18 13:21:27;;;;;;;5.35;4.20;;;;;;;;;;5112362;28;20054;-60
2023/06/18 13:23:54;;;;;;;4.50;4.10;;;;;;;;;;5114344;28;20443;-61
2023/06/18 13:26:21;;;;;;;6.25;5.05;;;;;;;;;;5114368;28;20081;-60
2023/06/18 13:28:48;;;;;;;4.70;4.30;;;;;;;;;;5114687;28;20052;-60
2023/06/18 13:31:16;;;;;;;5.07;4.57;;;;;;;;;;5111411;28;20056;-61
2023/06/18 13:33:43;;;;;;;4.80;4.40;;;;;;;;;;5112918;28;20484;-61
2023/06/18 13:36:10;;;;;;;4.82;4.32;;;;;;;;;;5113162;28;20543;-60
2023/06/18 13:38:39;;;;;;;4.63;4.22;;;;;;;;;;5115137;28;20058;-63
2023/06/18 13:41:06;;;;;;;4.50;4.10;;;;;;;;;;5113320;28;20059;-63
2023/06/18 13:43:34;;;;;;;4.82;4.03;;;;;;;;;;5113698;28;20062;-63
2023/06/18 13:46:01;;;;;;;4.60;4.20;;;;;;;;;;5118904;27;20043;-63
2023/06/18 13:48:29;;;;;;;4.97;4.45;;;;;;;;;;5118192;27;20055;-63
2023/06/18 13:50:57;;;;;;;5.50;4.30;;;;;;;;;;5112208;27;20377;-63
2023/06/18 13:53:23;;;;;;;4.32;3.92;;;;;;;;;;5111901;27;20047;-63
2023/06/18 13:55:50;;;;;;;4.70;4.18;;;;;;;;;;5111052;28;20051;-63
2023/06/18 13:58:18;;;;;;;4.55;4.15;;;;;;;;;;5112499;27;20043;-63
2023/06/18 14:00:45;;;;;;;5.05;4.05;;;;;;;;;;5111838;28;20389;-63
2023/06/18 14:03:12;;;;;;;5.15;4.60;;;;;;;;;;5112792;28;20060;-63
2023/06/18 14:05:41;;;;;;;5.80;4.30;;;;;;;;;;5113050;28;20051;-63
2023/06/18 14:08:08;;;;;;;4.40;4.00;;;;;;;;;;5112657;28;20051;-63
2023/06/18 14:10:35;;;;;;;4.88;3.92;;;;;;;;;;5109632;28;20058;-63
2023/06/18 14:13:02;;;;;;;4.45;4.00;;;;;;;;;;5112042;28;20051;-62
2023/06/18 14:15:29;;;;;;;5.20;4.22;;;;;;;;;;5112972;28;20047;-63
2023/06/18 14:17:56;;;;;;;5.18;4.78;;;;;;;;;;5112822;28;20469;-63
2023/06/18 14:20:23;;;;;;;4.60;3.97;;;;;;;;;;5112525;28;20052;-62
2023/06/18 14:22:51;;;;;;;4.95;4.03;;;;;;;;;;5096635;28;20381;-63
2023/06/18 14:25:18;;;;;;;4.97;4.45;;;;;;;;;;5112540;28;20404;-63
2023/06/18 14:27:47;;;;;;;4.38;3.85;;;;;;;;;;5110862;28;20051;-63
2023/06/18 14:30:14;;;;;;;5.35;4.10;;;;;;;;;;5111533;28;20048;-62
2023/06/18 14:32:41;;;;;;;4.90;4.40;;;;;;;;;;5113204;28;20047;-62
2023/06/18 14:35:09;;;;;;;5.38;4.43;;;;;;;;;;5112423;28;20058;-62
2023/06/18 14:37:36;;;;;;;5.63;4.60;;;;;;;;;;5110946;28;20059;-63
2023/06/18 14:40:05;;;;;;;4.78;4.38;;;;;;;;;;5112763;28;20519;-62
2023/06/18 14:42:32;;;;;;;5.38;4.65;;;;;;;;;;5113436;28;20059;-63
2023/06/18 14:44:58;;;;;;;6.50;4.47;;;;;;;;;;5111766;28;20054;-62
2023/06/18 14:47:25;;;;;;;4.82;4.43;;;;;;;;;;5110263;28;20047;-62
2023/06/18 14:49:55;;;;;;;4.88;4.32;;;;;;;;;;5113092;28;20052;-62